Time;durP1;ratioP1;P1;durP2;ratioP2;P2;SDS_P1;SDS_P2;PMS_P1;PMS_P2;Temp;Humidity;BMP_temperature;BMP_pressure;BME280_temperature;BME280_humidity;BME280_pressure;Samples;Min_cycle;Max_cycle;Signal;HPM_P1;HPM_P2
2022/02/20 00:00:30;;;;;;;;;1.50;1.00;;;;;;;;5016484;28;45697;-82
2022/02/20 00:02:55;;;;;;;;;0.00;0.00;;;;;;;;5017038;28;45499;-82
2022/02/20 00:05:21;;;;;;;;;3.00;3.00;;;;;;;;5016627;28;45711;-84
2022/02/20 00:07:46;;;;;;;;;0.75;0.75;;;;;;;;5017288;28;46325;-82
2022/02/20 00:10:11;;;;;;;;;2.00;0.75;;;;;;;;5016747;28;45455;-82
2022/02/20 00:12:36;;;;;;;;;2.00;2.00;;;;;;;;4992283;28;45383;-81
2022/02/20 00:15:02;;;;;;;;;3.00;2.00;;;;;;;;5006191;28;45432;-81
2022/02/20 00:17:27;;;;;;;;;2.00;0.00;;;;;;;;5015467;28;46238;-80
2022/02/20 00:19:52;;;;;;;;;0.50;0.00;;;;;;;;5015341;28;45538;-82
2022/02/20 00:22:18;;;;;;;;;2.00;2.00;;;;;;;;5016625;28;45474;-81
2022/02/20 00:24:43;;;;;;;;;1.00;1.00;;;;;;;;5015909;28;45626;-80
2022/02/20 00:29:43;;;;;;;;;0.50;0.50;;;;;;;;5238776;22;45613;-86
2022/02/20 00:32:08;;;;;;;;;2.00;1.00;;;;;;;;5016842;28;45310;-87
2022/02/20 00:34:34;;;;;;;;;2.00;1.00;;;;;;;;5018026;28;45465;-87
2022/02/20 00:36:59;;;;;;;;;0.50;0.50;;;;;;;;5018585;28;45489;-87
2022/02/20 00:39:24;;;;;;;;;2.25;1.25;;;;;;;;5017467;28;45295;-88
2022/02/20 00:41:49;;;;;;;;;2.75;1.00;;;;;;;;5016436;28;45423;-88
2022/02/20 00:44:15;;;;;;;;;2.50;2.50;;;;;;;;4999851;28;45253;-88
2022/02/20 00:46:40;;;;;;;;;1.00;1.00;;;;;;;;5016685;28;45469;-87
2022/02/20 00:49:05;;;;;;;;;1.00;1.00;;;;;;;;5017776;28;45264;-87
2022/02/20 00:51:30;;;;;;;;;1.00;1.00;;;;;;;;5015949;28;45406;-87
2022/02/20 00:53:56;;;;;;;;;1.25;1.00;;;;;;;;5016007;28;45522;-85
2022/02/20 00:56:21;;;;;;;;;1.00;1.00;;;;;;;;5015407;28;47367;-84
2022/02/20 00:58:46;;;;;;;;;2.50;1.00;;;;;;;;5016632;28;45251;-84
2022/02/20 01:01:11;;;;;;;;;1.25;1.25;;;;;;;;5015472;28;45475;-84
2022/02/20 01:03:36;;;;;;;;;1.00;1.00;;;;;;;;5015653;28;45390;-84
2022/02/20 01:06:02;;;;;;;;;2.00;1.00;;;;;;;;4996442;28;47033;-84
2022/02/20 01:08:27;;;;;;;;;2.00;1.50;;;;;;;;5001523;28;45451;-84
2022/02/20 01:10:52;;;;;;;;;1.50;1.50;;;;;;;;5016467;28;45333;-84
2022/02/20 01:13:17;;;;;;;;;3.25;1.50;;;;;;;;5016361;28;45253;-83
2022/02/20 01:15:43;;;;;;;;;0.25;0.25;;;;;;;;4997550;28;46088;-85
2022/02/20 01:18:08;;;;;;;;;1.75;1.75;;;;;;;;5020642;28;45251;-85
2022/02/20 01:20:34;;;;;;;;;5.00;1.75;;;;;;;;5018814;28;45443;-87
2022/02/20 01:22:59;;;;;;;;;1.00;1.00;;;;;;;;5018136;28;45397;-87
2022/02/20 01:25:24;;;;;;;;;1.25;0.75;;;;;;;;5016301;28;46170;-87
2022/02/20 01:27:50;;;;;;;;;0.50;0.00;;;;;;;;5018754;28;45524;-85
2022/02/20 01:30:15;;;;;;;;;2.00;1.00;;;;;;;;5015657;28;45451;-87
2022/02/20 01:32:40;;;;;;;;;2.50;2.00;;;;;;;;5014546;28;45407;-87
2022/02/20 01:35:06;;;;;;;;;1.75;1.00;;;;;;;;5015726;28;46380;-87
2022/02/20 01:37:31;;;;;;;;;2.00;2.00;;;;;;;;5016036;28;45412;-83
2022/02/20 01:39:56;;;;;;;;;1.25;1.25;;;;;;;;5015135;28;45536;-86
2022/02/20 01:42:21;;;;;;;;;2.00;0.75;;;;;;;;5015022;28;45336;-86
2022/02/20 01:44:47;;;;;;;;;2.50;1.00;;;;;;;;5014810;28;45459;-86
2022/02/20 01:47:14;;;;;;;;;2.75;0.50;;;;;;;;5015108;28;45495;-85
2022/02/20 01:49:40;;;;;;;;;2.75;1.75;;;;;;;;5001451;28;45352;-85
2022/02/20 01:52:05;;;;;;;;;3.25;2.75;;;;;;;;5014010;28;45520;-85
2022/02/20 01:55:06;;;;;;;;;4.75;2.50;;;;;;;;5164384;22;45559;-85
2022/02/20 02:00:45;;;;;;;;;1.00;1.00;;;;;;;;4952967;28;45490;-83
2022/02/20 02:03:10;;;;;;;;;4.50;3.00;;;;;;;;4936521;28;45813;-85
2022/02/20 02:05:47;;;;;;;;;2.25;2.25;;;;;;;;4955551;28;45458;-83
2022/02/20 02:14:18;;;;;;;;;6.25;5.50;;;;;;;;4937486;28;45410;-83
2022/02/20 02:19:55;;;;;;;;;2.25;1.75;;;;;;;;4950710;28;45513;-81
2022/02/20 02:22:26;;;;;;;;;3.25;1.00;;;;;;;;4954966;28;45421;-82
2022/02/20 02:24:52;;;;;;;;;4.00;3.00;;;;;;;;4972179;28;45316;-81
2022/02/20 02:27:17;;;;;;;;;0.50;0.50;;;;;;;;4974686;28;47419;-80
2022/02/20 02:29:44;;;;;;;;;2.75;2.25;;;;;;;;4974313;28;45432;-84
2022/02/20 02:32:09;;;;;;;;;1.75;1.75;;;;;;;;4975134;28;45554;-82
2022/02/20 02:34:35;;;;;;;;;4.25;1.00;;;;;;;;4975831;28;45496;-83
2022/02/20 02:37:00;;;;;;;;;1.00;1.00;;;;;;;;4974892;28;47427;-84
2022/02/20 02:39:26;;;;;;;;;3.00;3.00;;;;;;;;4975089;28;45505;-84
2022/02/20 02:41:51;;;;;;;;;4.00;2.00;;;;;;;;4975974;28;45371;-82
2022/02/20 02:44:16;;;;;;;;;3.25;1.75;;;;;;;;4976937;28;45431;-82
2022/02/20 02:46:41;;;;;;;;;3.75;2.00;;;;;;;;4979021;28;46824;-82
2022/02/20 02:49:06;;;;;;;;;4.75;2.00;;;;;;;;4978111;28;45216;-82
2022/02/20 02:51:32;;;;;;;;;0.00;0.00;;;;;;;;4978569;28;45234;-84
2022/02/20 02:53:58;;;;;;;;;5.00;3.00;;;;;;;;4978012;28;45539;-84
2022/02/20 02:56:23;;;;;;;;;6.75;3.00;;;;;;;;4987018;28;47002;-83
2022/02/20 02:58:49;;;;;;;;;1.50;1.50;;;;;;;;4998010;28;45269;-84
2022/02/20 03:01:15;;;;;;;;;3.50;3.00;;;;;;;;4996496;28;45506;-85
2022/02/20 03:03:41;;;;;;;;;3.50;3.50;;;;;;;;4997882;28;45229;-85
2022/02/20 03:06:10;;;;;;;;;4.00;2.50;;;;;;;;4997600;28;46337;-79
2022/02/20 03:08:36;;;;;;;;;5.25;2.50;;;;;;;;4997819;28;45420;-80
2022/02/20 03:11:03;;;;;;;;;4.00;3.00;;;;;;;;4998084;28;45479;-81
2022/02/20 03:13:28;;;;;;;;;2.50;1.25;;;;;;;;4998047;28;45630;-80
2022/02/20 03:15:53;;;;;;;;;3.00;2.00;;;;;;;;5003070;28;47061;-80
2022/02/20 03:18:19;;;;;;;;;2.75;2.00;;;;;;;;5004581;28;45553;-85
2022/02/20 03:20:44;;;;;;;;;0.75;0.75;;;;;;;;4998750;28;45521;-87
2022/02/20 03:23:09;;;;;;;;;2.00;0.50;;;;;;;;4997829;28;45441;-85
2022/02/20 03:25:36;;;;;;;;;3.50;2.25;;;;;;;;4997756;28;46803;-85
2022/02/20 03:28:02;;;;;;;;;2.00;2.00;;;;;;;;4997184;28;45425;-80
2022/02/20 03:30:27;;;;;;;;;2.50;1.00;;;;;;;;4997178;28;45598;-80
2022/02/20 03:32:53;;;;;;;;;3.75;3.25;;;;;;;;4997093;28;45599;-81
2022/02/20 03:35:18;;;;;;;;;2.75;2.75;;;;;;;;4997080;28;45531;-82
2022/02/20 03:37:43;;;;;;;;;3.00;3.00;;;;;;;;4997369;28;45369;-81
2022/02/20 03:40:08;;;;;;;;;1.25;1.00;;;;;;;;4997084;28;45607;-81
2022/02/20 03:42:34;;;;;;;;;3.75;1.25;;;;;;;;4996638;28;45659;-82
2022/02/20 03:44:59;;;;;;;;;1.00;1.00;;;;;;;;4996321;28;46507;-83
2022/02/20 03:47:24;;;;;;;;;5.50;4.25;;;;;;;;4996749;28;45490;-83
2022/02/20 03:49:49;;;;;;;;;3.00;3.00;;;;;;;;4997388;28;45462;-81
2022/02/20 03:52:15;;;;;;;;;3.75;2.50;;;;;;;;4997213;28;47700;-81
2022/02/20 03:54:40;;;;;;;;;4.25;4.00;;;;;;;;4997742;28;46016;-80
2022/02/20 03:57:05;;;;;;;;;1.00;1.00;;;;;;;;4996990;28;45336;-85
2022/02/20 03:59:30;;;;;;;;;6.25;4.25;;;;;;;;4999237;28;45422;-82
2022/02/20 04:01:55;;;;;;;;;6.00;3.00;;;;;;;;4998772;28;45384;-84
2022/02/20 04:04:21;;;;;;;;;3.50;1.00;;;;;;;;4998117;28;45461;-87
2022/02/20 04:06:46;;;;;;;;;5.75;2.25;;;;;;;;4997148;28;45513;-86
2022/02/20 04:09:12;;;;;;;;;1.75;1.75;;;;;;;;4997385;28;45298;-86
2022/02/20 04:11:37;;;;;;;;;5.00;3.00;;;;;;;;4996262;28;45416;-82
2022/02/20 04:14:03;;;;;;;;;1.00;0.50;;;;;;;;4996275;28;46263;-85
2022/02/20 04:16:28;;;;;;;;;3.25;2.00;;;;;;;;4994863;28;45638;-84
2022/02/20 04:18:53;;;;;;;;;3.25;2.25;;;;;;;;4996535;28;45404;-86
2022/02/20 04:21:18;;;;;;;;;4.25;3.50;;;;;;;;4996787;28;45220;-82
2022/02/20 04:23:43;;;;;;;;;3.75;3.25;;;;;;;;4996503;28;46194;-83
2022/02/20 04:26:08;;;;;;;;;5.00;4.00;;;;;;;;4995708;28;45634;-82
2022/02/20 04:28:34;;;;;;;;;5.00;4.00;;;;;;;;4997130;28;46390;-81
2022/02/20 04:30:59;;;;;;;;;2.25;1.25;;;;;;;;4996490;28;45555;-82
2022/02/20 04:33:25;;;;;;;;;3.50;1.00;;;;;;;;4996603;28;46858;-82
2022/02/20 04:35:50;;;;;;;;;4.75;3.00;;;;;;;;4996620;28;45385;-82
2022/02/20 04:38:16;;;;;;;;;4.00;2.75;;;;;;;;4996947;28;45381;-81
2022/02/20 04:40:42;;;;;;;;;4.00;4.00;;;;;;;;4997147;28;45365;-81
2022/02/20 04:43:07;;;;;;;;;4.75;3.00;;;;;;;;4996271;28;48471;-82
2022/02/20 04:45:32;;;;;;;;;5.00;2.00;;;;;;;;4996933;28;45382;-82
2022/02/20 04:47:57;;;;;;;;;2.75;2.25;;;;;;;;4996454;28;45443;-81
2022/02/20 04:50:23;;;;;;;;;2.25;2.25;;;;;;;;4996734;28;45504;-81
2022/02/20 04:52:48;;;;;;;;;4.50;2.00;;;;;;;;4997226;28;45947;-83
2022/02/20 04:55:13;;;;;;;;;2.00;1.75;;;;;;;;4995905;28;45346;-81
2022/02/20 04:57:39;;;;;;;;;0.00;0.00;;;;;;;;4996368;28;45474;-82
2022/02/20 05:00:06;;;;;;;;;3.75;2.50;;;;;;;;4994993;28;45499;-82
2022/02/20 05:02:31;;;;;;;;;1.00;1.00;;;;;;;;4996407;28;45663;-82
2022/02/20 05:04:56;;;;;;;;;3.75;1.25;;;;;;;;4996298;28;45317;-83
2022/02/20 05:07:21;;;;;;;;;2.25;2.25;;;;;;;;4996380;28;45336;-83
2022/02/20 05:09:47;;;;;;;;;5.00;3.25;;;;;;;;4995630;28;45486;-84
2022/02/20 05:12:12;;;;;;;;;3.00;2.00;;;;;;;;4995683;28;46413;-83
2022/02/20 05:14:37;;;;;;;;;5.00;4.00;;;;;;;;4996046;28;45496;-82
2022/02/20 05:17:02;;;;;;;;;2.00;1.25;;;;;;;;4996138;28;45429;-82
2022/02/20 05:19:28;;;;;;;;;2.25;2.25;;;;;;;;4997763;28;45532;-81
2022/02/20 05:21:53;;;;;;;;;2.75;2.00;;;;;;;;4995982;28;49667;-81
2022/02/20 05:24:18;;;;;;;;;3.50;2.50;;;;;;;;4995088;28;45501;-82
2022/02/20 05:26:44;;;;;;;;;1.00;1.00;;;;;;;;4995807;28;45500;-81
2022/02/20 05:29:09;;;;;;;;;5.00;3.00;;;;;;;;4995860;28;47381;-82
2022/02/20 05:31:34;;;;;;;;;5.00;2.00;;;;;;;;4996153;28;46243;-83
2022/02/20 05:33:59;;;;;;;;;4.00;2.00;;;;;;;;4995528;28;45275;-83
2022/02/20 05:36:24;;;;;;;;;4.75;3.25;;;;;;;;4995461;28;45527;-84
2022/02/20 05:38:50;;;;;;;;;4.25;2.75;;;;;;;;4995372;28;45619;-82
2022/02/20 05:41:15;;;;;;;;;3.25;2.25;;;;;;;;4995144;28;46978;-82
2022/02/20 05:43:40;;;;;;;;;4.00;2.25;;;;;;;;4995909;28;45423;-84
2022/02/20 05:46:06;;;;;;;;;2.00;2.00;;;;;;;;4995587;28;45269;-82
2022/02/20 05:48:31;;;;;;;;;3.50;3.50;;;;;;;;4996266;28;45350;-87
2022/02/20 05:50:56;;;;;;;;;2.00;2.00;;;;;;;;4995641;28;47158;-85
2022/02/20 05:53:21;;;;;;;;;2.50;2.50;;;;;;;;4995507;28;45480;-84
2022/02/20 05:55:47;;;;;;;;;2.75;1.00;;;;;;;;4995988;28;45445;-84
2022/02/20 05:58:12;;;;;;;;;4.50;3.00;;;;;;;;4995491;28;45394;-84
2022/02/20 06:10:57;;;;;;;;;4.50;2.00;;;;;;;;4993202;28;45563;-85
2022/02/20 06:13:22;;;;;;;;;1.50;1.00;;;;;;;;4995296;28;45389;-84
2022/02/20 06:15:48;;;;;;;;;3.25;2.00;;;;;;;;4994980;28;45539;-85
2022/02/20 06:18:13;;;;;;;;;2.00;1.00;;;;;;;;4994324;28;45332;-84
2022/02/20 06:20:38;;;;;;;;;2.00;2.00;;;;;;;;4995375;28;46070;-84
2022/02/20 06:23:03;;;;;;;;;2.00;2.00;;;;;;;;4996533;28;45249;-85
2022/02/20 06:25:30;;;;;;;;;3.25;0.75;;;;;;;;4977747;28;45312;-84
2022/02/20 06:27:55;;;;;;;;;1.50;1.00;;;;;;;;4994541;28;45506;-84
2022/02/20 06:30:20;;;;;;;;;4.75;2.00;;;;;;;;4994446;28;46837;-84
2022/02/20 06:32:46;;;;;;;;;1.50;1.00;;;;;;;;4994769;28;45453;-84
2022/02/20 06:35:11;;;;;;;;;2.50;1.75;;;;;;;;4994240;28;45547;-84
2022/02/20 06:37:36;;;;;;;;;5.75;1.75;;;;;;;;4977637;28;45437;-83
2022/02/20 06:40:01;;;;;;;;;4.00;3.00;;;;;;;;4994237;28;46053;-84
2022/02/20 06:42:27;;;;;;;;;4.50;2.00;;;;;;;;4994218;28;45385;-83
2022/02/20 06:44:52;;;;;;;;;4.00;2.00;;;;;;;;4994883;28;45409;-82
2022/02/20 06:47:17;;;;;;;;;6.50;3.00;;;;;;;;4994990;28;45463;-87
2022/02/20 06:49:42;;;;;;;;;1.25;1.00;;;;;;;;5000267;28;47171;-87
2022/02/20 06:52:07;;;;;;;;;3.25;1.50;;;;;;;;4994257;28;45343;-87
2022/02/20 06:54:33;;;;;;;;;4.00;1.00;;;;;;;;4993955;28;45511;-82
2022/02/20 06:56:58;;;;;;;;;6.25;2.75;;;;;;;;4993888;28;45365;-82
2022/02/20 06:59:24;;;;;;;;;1.00;1.00;;;;;;;;4993872;28;46537;-84
2022/02/20 07:01:49;;;;;;;;;2.00;2.00;;;;;;;;4994066;28;45502;-84
2022/02/20 07:04:15;;;;;;;;;2.00;1.25;;;;;;;;4993936;28;46353;-85
2022/02/20 07:06:42;;;;;;;;;3.00;1.50;;;;;;;;4995142;28;45373;-85
2022/02/20 07:09:08;;;;;;;;;0.25;0.00;;;;;;;;4994587;28;45552;-82
2022/02/20 07:11:33;;;;;;;;;4.00;3.00;;;;;;;;4993040;28;45534;-85
2022/02/20 07:13:58;;;;;;;;;3.00;1.75;;;;;;;;4994067;28;45500;-86
2022/02/20 07:16:24;;;;;;;;;2.00;2.00;;;;;;;;4993862;28;45435;-85
2022/02/20 07:18:49;;;;;;;;;1.25;1.25;;;;;;;;4993339;28;46361;-84
2022/02/20 07:21:14;;;;;;;;;3.75;2.00;;;;;;;;4993474;28;45409;-84
2022/02/20 07:23:39;;;;;;;;;2.50;1.50;;;;;;;;4994079;28;45451;-84
2022/02/20 07:26:05;;;;;;;;;3.50;2.75;;;;;;;;4994023;28;45201;-83
2022/02/20 07:28:30;;;;;;;;;3.50;2.25;;;;;;;;4995539;28;45512;-83
2022/02/20 07:30:55;;;;;;;;;5.00;2.50;;;;;;;;4996575;28;45385;-84
2022/02/20 07:33:20;;;;;;;;;1.25;1.25;;;;;;;;4997408;28;45346;-84
2022/02/20 07:35:45;;;;;;;;;1.00;1.00;;;;;;;;4979126;28;45511;-81
2022/02/20 07:38:11;;;;;;;;;1.00;1.00;;;;;;;;4996360;28;46549;-82
2022/02/20 07:40:36;;;;;;;;;4.50;2.00;;;;;;;;4996943;28;45263;-82
2022/02/20 07:43:01;;;;;;;;;4.00;1.50;;;;;;;;4996522;28;45462;-84
2022/02/20 07:45:27;;;;;;;;;1.00;1.00;;;;;;;;4996592;28;45321;-84
2022/02/20 07:47:59;;;;;;;;;3.00;3.00;;;;;;;;4996001;28;47124;-84
2022/02/20 07:50:28;;;;;;;;;3.50;2.50;;;;;;;;4996364;28;45431;-83
2022/02/20 07:52:54;;;;;;;;;3.25;1.25;;;;;;;;4997218;28;45387;-85
2022/02/20 07:55:20;;;;;;;;;2.50;2.50;;;;;;;;4996662;28;45411;-85
2022/02/20 07:57:46;;;;;;;;;6.25;3.00;;;;;;;;4996516;28;45560;-85
2022/02/20 08:00:12;;;;;;;;;2.50;1.25;;;;;;;;4996886;28;45907;-84
2022/02/20 08:02:38;;;;;;;;;3.00;1.25;;;;;;;;5001004;28;45513;-84
2022/02/20 08:05:04;;;;;;;;;3.00;2.00;;;;;;;;4996939;28;45532;-87
2022/02/20 08:07:29;;;;;;;;;3.75;2.00;;;;;;;;4979529;28;46892;-83
2022/02/20 08:09:55;;;;;;;;;7.50;2.75;;;;;;;;4996190;28;45382;-85
2022/02/20 08:12:20;;;;;;;;;2.00;2.00;;;;;;;;4996080;28;45425;-85
2022/02/20 08:14:46;;;;;;;;;4.00;2.75;;;;;;;;4996630;28;45492;-86
2022/02/20 08:17:11;;;;;;;;;3.00;3.00;;;;;;;;4996176;28;46064;-85
2022/02/20 08:19:36;;;;;;;;;4.00;1.25;;;;;;;;4997031;28;45416;-83
2022/02/20 08:22:01;;;;;;;;;3.75;3.75;;;;;;;;4996438;28;45524;-83
2022/02/20 08:24:27;;;;;;;;;3.75;1.75;;;;;;;;4996408;28;45318;-83
2022/02/20 08:26:53;;;;;;;;;1.75;0.50;;;;;;;;4994990;28;47723;-82
2022/02/20 08:29:21;;;;;;;;;2.25;2.25;;;;;;;;4978606;28;45525;-84
2022/02/20 08:31:47;;;;;;;;;4.00;2.50;;;;;;;;4992063;28;45298;-80
2022/02/20 08:34:12;;;;;;;;;3.25;2.25;;;;;;;;4995892;28;45551;-80
2022/02/20 08:36:38;;;;;;;;;3.75;2.00;;;;;;;;4977584;28;47314;-79
2022/02/20 08:39:04;;;;;;;;;6.25;3.00;;;;;;;;4995436;28;45543;-80
2022/02/20 08:41:29;;;;;;;;;7.50;3.00;;;;;;;;4995187;28;45422;-82
2022/02/20 08:43:54;;;;;;;;;6.75;4.50;;;;;;;;4995735;28;45370;-82
2022/02/20 08:46:19;;;;;;;;;4.50;1.25;;;;;;;;4996017;28;46235;-82
2022/02/20 08:48:46;;;;;;;;;6.00;3.75;;;;;;;;4995838;28;45352;-84
2022/02/20 08:51:11;;;;;;;;;6.25;4.50;;;;;;;;4995877;28;45520;-83
2022/02/20 08:53:38;;;;;;;;;4.25;2.50;;;;;;;;4996235;28;45386;-84
2022/02/20 08:56:04;;;;;;;;;3.00;2.00;;;;;;;;4995787;28;45666;-83
2022/02/20 08:58:29;;;;;;;;;3.75;2.25;;;;;;;;4995704;28;45486;-84
2022/02/20 09:00:55;;;;;;;;;7.50;2.00;;;;;;;;4995417;28;45332;-82
2022/02/20 09:03:21;;;;;;;;;7.00;2.00;;;;;;;;4995391;28;45541;-82
2022/02/20 09:05:46;;;;;;;;;2.00;2.00;;;;;;;;4995675;28;45562;-81
2022/02/20 09:08:11;;;;;;;;;3.25;2.50;;;;;;;;4994996;28;45469;-77
2022/02/20 09:10:36;;;;;;;;;2.50;1.00;;;;;;;;4994990;28;45440;-79
2022/02/20 09:13:02;;;;;;;;;4.00;2.00;;;;;;;;4995509;28;45410;-78
2022/02/20 09:15:27;;;;;;;;;1.00;1.00;;;;;;;;4995400;28;46297;-77
2022/02/20 09:17:52;;;;;;;;;3.75;2.00;;;;;;;;4994952;28;45413;-72
2022/02/20 09:20:17;;;;;;;;;2.00;1.25;;;;;;;;4979734;28;45316;-78
2022/02/20 09:22:42;;;;;;;;;3.00;2.00;;;;;;;;4995819;28;45331;-80
2022/02/20 09:25:09;;;;;;;;;4.00;2.00;;;;;;;;5002617;28;47500;-78
2022/02/20 09:27:34;;;;;;;;;4.00;2.50;;;;;;;;4994088;28;45421;-78
2022/02/20 09:30:00;;;;;;;;;5.50;2.00;;;;;;;;4994122;28;45394;-78
2022/02/20 09:32:27;;;;;;;;;3.00;2.00;;;;;;;;4994409;28;45520;-77
2022/02/20 09:34:52;;;;;;;;;1.00;1.00;;;;;;;;4994220;28;46728;-77
2022/02/20 09:37:17;;;;;;;;;2.00;2.00;;;;;;;;4994066;28;45484;-77
2022/02/20 09:39:42;;;;;;;;;6.75;3.50;;;;;;;;4994094;28;45383;-77
2022/02/20 09:42:08;;;;;;;;;2.75;2.00;;;;;;;;4994167;28;45516;-78
2022/02/20 09:44:33;;;;;;;;;3.25;3.00;;;;;;;;4993582;28;46277;-76
2022/02/20 09:46:58;;;;;;;;;4.00;1.50;;;;;;;;4976850;28;45421;-75
2022/02/20 09:49:28;;;;;;;;;4.50;1.75;;;;;;;;4994811;28;45475;-77
2022/02/20 09:51:54;;;;;;;;;3.50;2.75;;;;;;;;4994443;28;45561;-77
2022/02/20 09:54:19;;;;;;;;;4.50;1.75;;;;;;;;4992794;28;45849;-78
2022/02/20 09:56:44;;;;;;;;;2.25;2.00;;;;;;;;4994406;28;45459;-77
2022/02/20 09:59:09;;;;;;;;;1.00;0.00;;;;;;;;4993976;28;45294;-76
2022/02/20 10:01:35;;;;;;;;;2.75;1.25;;;;;;;;4994729;28;45293;-76
2022/02/20 10:04:10;;;;;;;;;3.50;2.75;;;;;;;;4970924;28;47419;-77
2022/02/20 10:06:35;;;;;;;;;2.00;2.00;;;;;;;;4992668;28;45587;-79
2022/02/20 10:09:00;;;;;;;;;1.00;1.00;;;;;;;;4993404;28;45429;-79
2022/02/20 10:11:27;;;;;;;;;1.00;1.00;;;;;;;;4986132;28;46193;-78
2022/02/20 10:13:53;;;;;;;;;3.50;3.00;;;;;;;;4990097;28;45997;-76
2022/02/20 10:16:22;;;;;;;;;2.00;1.00;;;;;;;;4994258;28;45364;-76
2022/02/20 10:18:49;;;;;;;;;2.25;1.00;;;;;;;;4993824;28;45586;-76
2022/02/20 10:21:40;;;;;;;;;2.00;2.00;;;;;;;;4993927;28;45426;-76
2022/02/20 10:24:12;;;;;;;;;3.25;0.50;;;;;;;;4989777;28;46955;-79
2022/02/20 10:26:47;;;;;;;;;1.00;0.00;;;;;;;;4993569;28;45847;-76
2022/02/20 10:29:18;;;;;;;;;1.25;1.00;;;;;;;;4993383;28;45375;-78
2022/02/20 10:31:54;;;;;;;;;2.50;1.00;;;;;;;;4993304;28;45340;-79
2022/02/20 10:34:23;;;;;;;;;3.00;1.25;;;;;;;;4994217;28;47124;-78
2022/02/20 10:36:51;;;;;;;;;1.75;0.00;;;;;;;;4976180;28;45439;-79
2022/02/20 10:39:38;;;;;;;;;1.50;0.25;;;;;;;;4993578;28;45301;-79
2022/02/20 10:42:15;;;;;;;;;1.50;1.00;;;;;;;;4993097;28;45408;-78
2022/02/20 10:44:49;;;;;;;;;2.00;1.25;;;;;;;;4992700;28;46336;-79
2022/02/20 10:47:15;;;;;;;;;1.50;1.50;;;;;;;;4992887;28;45411;-78
2022/02/20 10:49:41;;;;;;;;;3.00;2.00;;;;;;;;4993509;28;45781;-80
2022/02/20 10:52:18;;;;;;;;;3.50;2.00;;;;;;;;4992821;28;45797;-80
2022/02/20 10:55:02;;;;;;;;;3.00;2.00;;;;;;;;4992352;28;45363;-79
2022/02/20 10:57:34;;;;;;;;;2.75;1.50;;;;;;;;4993096;28;45395;-81
2022/02/20 10:59:59;;;;;;;;;3.00;1.50;;;;;;;;4994142;28;45573;-80
2022/02/20 11:02:24;;;;;;;;;1.75;1.00;;;;;;;;4974697;28;45388;-79
2022/02/20 11:04:49;;;;;;;;;1.25;1.25;;;;;;;;4994357;28;46475;-80
2022/02/20 11:07:17;;;;;;;;;1.00;1.00;;;;;;;;4996134;28;45409;-81
2022/02/20 11:09:43;;;;;;;;;3.00;1.00;;;;;;;;4996507;28;45509;-80
2022/02/20 11:12:08;;;;;;;;;6.00;2.50;;;;;;;;4996034;28;45316;-79
2022/02/20 11:14:35;;;;;;;;;4.00;1.50;;;;;;;;4995708;28;45402;-78
2022/02/20 11:17:03;;;;;;;;;6.75;1.00;;;;;;;;4995986;28;45518;-79
2022/02/20 11:19:30;;;;;;;;;5.00;2.00;;;;;;;;4996544;28;45474;-79
2022/02/20 11:21:59;;;;;;;;;1.50;1.50;;;;;;;;4996306;28;45413;-78
2022/02/20 11:24:28;;;;;;;;;3.75;2.00;;;;;;;;4995407;28;45531;-79
2022/02/20 11:26:54;;;;;;;;;1.75;1.00;;;;;;;;4977977;28;45388;-79
2022/02/20 11:29:20;;;;;;;;;1.50;1.50;;;;;;;;4995823;28;45219;-79
2022/02/20 11:31:46;;;;;;;;;3.50;3.50;;;;;;;;4995949;28;45437;-78
2022/02/20 11:34:11;;;;;;;;;2.25;2.25;;;;;;;;4995436;28;45868;-81
2022/02/20 11:36:37;;;;;;;;;2.00;0.00;;;;;;;;4995897;28;45427;-79
2022/02/20 11:39:14;;;;;;;;;5.25;3.50;;;;;;;;4995143;28;45318;-79
2022/02/20 11:41:59;;;;;;;;;4.00;1.50;;;;;;;;4995897;28;45535;-80
2022/02/20 11:44:28;;;;;;;;;3.00;3.00;;;;;;;;4980414;28;46343;-85
2022/02/20 11:46:54;;;;;;;;;2.00;1.00;;;;;;;;4999769;28;45492;-77
2022/02/20 11:49:30;;;;;;;;;1.00;1.00;;;;;;;;4999917;28;45428;-77
2022/02/20 11:52:11;;;;;;;;;1.25;0.00;;;;;;;;5000382;28;45483;-79
2022/02/20 11:54:37;;;;;;;;;2.25;1.25;;;;;;;;4999446;28;46932;-77
2022/02/20 11:57:12;;;;;;;;;0.50;0.50;;;;;;;;4995085;28;45552;-77
2022/02/20 11:59:37;;;;;;;;;0.75;0.25;;;;;;;;4996210;28;45453;-81
2022/02/20 12:02:05;;;;;;;;;2.50;2.00;;;;;;;;4996333;28;45512;-78
2022/02/20 12:04:49;;;;;;;;;2.00;1.25;;;;;;;;4994331;28;46224;-80
2022/02/20 12:07:26;;;;;;;;;3.00;2.25;;;;;;;;4997039;28;45490;-81
2022/02/20 12:10:11;;;;;;;;;2.75;2.75;;;;;;;;4996421;28;45378;-79
2022/02/20 12:12:37;;;;;;;;;3.25;1.75;;;;;;;;4997470;28;45470;-78
2022/02/20 12:15:22;;;;;;;;;5.00;1.00;;;;;;;;4996211;28;46003;-78
2022/02/20 12:18:06;;;;;;;;;1.75;1.75;;;;;;;;4982903;28;45549;-80
2022/02/20 12:20:47;;;;;;;;;2.00;1.00;;;;;;;;4992972;28;45423;-76
2022/02/20 12:23:25;;;;;;;;;4.75;2.50;;;;;;;;4992931;28;45685;-75
2022/02/20 12:25:50;;;;;;;;;1.75;1.50;;;;;;;;4996350;28;46355;-77
2022/02/20 12:28:29;;;;;;;;;3.00;2.25;;;;;;;;4994058;28;45613;-75
2022/02/20 12:30:54;;;;;;;;;3.50;1.25;;;;;;;;4993439;28;45472;-75
2022/02/20 12:33:29;;;;;;;;;3.50;1.25;;;;;;;;4994833;28;45499;-72
2022/02/20 12:35:55;;;;;;;;;1.00;1.00;;;;;;;;4999318;28;47215;-73
2022/02/20 12:38:20;;;;;;;;;5.50;3.00;;;;;;;;4994941;28;45405;-72
2022/02/20 12:40:47;;;;;;;;;1.50;1.25;;;;;;;;4997848;28;45450;-73
2022/02/20 12:43:13;;;;;;;;;1.00;1.00;;;;;;;;4992650;28;45610;-73
2022/02/20 12:45:44;;;;;;;;;2.00;2.00;;;;;;;;4991538;28;45506;-74
2022/02/20 12:48:10;;;;;;;;;4.25;3.00;;;;;;;;4992157;28;45454;-78
2022/02/20 12:50:36;;;;;;;;;3.00;3.00;;;;;;;;4995552;28;45394;-78
2022/02/20 12:53:05;;;;;;;;;6.50;2.50;;;;;;;;4996337;28;45445;-79
2022/02/20 12:55:31;;;;;;;;;6.75;4.00;;;;;;;;4994827;28;46364;-79
2022/02/20 12:57:58;;;;;;;;;5.50;3.00;;;;;;;;4989516;28;45496;-80
2022/02/20 13:00:26;;;;;;;;;3.00;1.25;;;;;;;;4994681;28;45397;-81
2022/02/20 13:02:51;;;;;;;;;5.75;2.00;;;;;;;;4993055;28;45442;-81
2022/02/20 13:05:30;;;;;;;;;4.25;2.50;;;;;;;;4993144;28;46890;-79
2022/02/20 13:07:58;;;;;;;;;4.75;3.00;;;;;;;;4991625;28;45376;-79
2022/02/20 13:10:33;;;;;;;;;5.75;3.75;;;;;;;;4994710;28;45432;-80
2022/02/20 13:13:00;;;;;;;;;3.50;2.75;;;;;;;;4992099;28;45427;-80
2022/02/20 13:15:26;;;;;;;;;3.00;2.00;;;;;;;;4991828;28;46261;-79
2022/02/20 13:17:54;;;;;;;;;5.00;3.25;;;;;;;;4992884;28;47133;-79
2022/02/20 13:20:26;;;;;;;;;3.25;2.00;;;;;;;;4976690;28;45346;-78
2022/02/20 13:22:51;;;;;;;;;3.75;3.00;;;;;;;;4991183;28;45351;-79
2022/02/20 13:25:17;;;;;;;;;4.75;4.00;;;;;;;;4992944;28;45389;-82
2022/02/20 13:27:46;;;;;;;;;3.75;2.75;;;;;;;;4995073;28;45299;-80
2022/02/20 13:30:12;;;;;;;;;4.00;3.50;;;;;;;;4976313;28;45476;-81
2022/02/20 13:32:37;;;;;;;;;3.25;3.25;;;;;;;;4991910;28;45529;-79
2022/02/20 13:35:04;;;;;;;;;3.50;3.25;;;;;;;;4994224;28;45469;-80
2022/02/20 13:37:29;;;;;;;;;5.75;2.75;;;;;;;;4992946;28;45484;-81
2022/02/20 13:39:55;;;;;;;;;10.00;4.50;;;;;;;;4993903;28;45384;-81
2022/02/20 13:42:20;;;;;;;;;2.75;2.00;;;;;;;;4996874;28;45405;-82
2022/02/20 13:44:45;;;;;;;;;2.00;2.00;;;;;;;;4977617;28;47087;-80
2022/02/20 13:47:11;;;;;;;;;7.00;3.50;;;;;;;;4992771;28;45458;-81
2022/02/20 13:49:48;;;;;;;;;6.75;4.00;;;;;;;;4992707;28;45436;-77
2022/02/20 13:52:20;;;;;;;;;4.25;3.00;;;;;;;;4992908;28;45624;-81
2022/02/20 13:54:46;;;;;;;;;2.25;2.25;;;;;;;;4975808;28;47359;-77
2022/02/20 13:57:22;;;;;;;;;6.50;3.00;;;;;;;;4992741;28;45512;-79
2022/02/20 13:59:48;;;;;;;;;4.00;3.00;;;;;;;;4987470;28;45448;-80
2022/02/20 14:02:13;;;;;;;;;4.00;3.00;;;;;;;;4991659;28;45617;-80
2022/02/20 14:04:42;;;;;;;;;5.25;3.75;;;;;;;;4997674;28;47391;-80
2022/02/20 14:07:18;;;;;;;;;10.75;5.00;;;;;;;;4997790;28;45489;-79
2022/02/20 14:09:45;;;;;;;;;4.25;3.25;;;;;;;;4990938;28;45296;-80
2022/02/20 14:12:12;;;;;;;;;4.00;3.75;;;;;;;;4991021;28;45397;-80
2022/02/20 14:14:38;;;;;;;;;5.00;2.00;;;;;;;;4990746;28;46079;-81
2022/02/20 14:17:03;;;;;;;;;5.25;4.00;;;;;;;;4997278;28;45686;-81
2022/02/20 14:19:28;;;;;;;;;5.75;2.00;;;;;;;;4991966;28;45509;-82
2022/02/20 14:21:55;;;;;;;;;3.25;3.00;;;;;;;;4997297;28;45513;-81
2022/02/20 14:24:20;;;;;;;;;5.00;1.50;;;;;;;;4997157;28;47221;-80
2022/02/20 14:26:45;;;;;;;;;3.25;2.00;;;;;;;;4993576;28;45571;-80
2022/02/20 14:29:11;;;;;;;;;5.25;5.00;;;;;;;;4993079;28;45650;-81
2022/02/20 14:31:37;;;;;;;;;4.25;2.00;;;;;;;;4993625;28;45503;-80
2022/02/20 14:34:03;;;;;;;;;3.25;2.25;;;;;;;;4989671;28;46065;-79
2022/02/20 14:36:34;;;;;;;;;11.25;6.50;;;;;;;;4992045;28;45574;-80
2022/02/20 14:39:00;;;;;;;;;6.25;4.00;;;;;;;;4989428;28;45676;-80
2022/02/20 14:41:26;;;;;;;;;7.00;4.25;;;;;;;;5001681;28;45410;-80
2022/02/20 14:43:51;;;;;;;;;9.00;5.00;;;;;;;;5000719;28;46280;-79
2022/02/20 14:46:17;;;;;;;;;6.00;2.50;;;;;;;;4990287;28;45533;-81
2022/02/20 14:48:44;;;;;;;;;4.75;3.75;;;;;;;;4990764;28;45806;-80
2022/02/20 14:51:11;;;;;;;;;9.00;4.50;;;;;;;;5002001;28;45527;-80
2022/02/20 14:53:37;;;;;;;;;7.00;4.00;;;;;;;;4990866;28;46167;-78
2022/02/20 14:56:02;;;;;;;;;5.25;4.00;;;;;;;;4992775;28;45575;-77
2022/02/20 14:58:30;;;;;;;;;8.25;5.00;;;;;;;;4991745;28;45735;-79
2022/02/20 15:00:55;;;;;;;;;9.25;4.25;;;;;;;;4990273;28;45508;-78
2022/02/20 15:03:20;;;;;;;;;3.25;3.25;;;;;;;;4996704;28;46232;-80
2022/02/20 15:05:46;;;;;;;;;7.75;5.00;;;;;;;;4974399;28;46068;-80